createdAt,value
2022-12-26T00:00:12.465Z,66.42
2022-12-26T00:02:39.556Z,65.96
2022-12-26T00:05:07.050Z,66.13
2022-12-26T00:07:34.019Z,65.88
2022-12-26T00:10:01.017Z,65.83
2022-12-26T00:12:27.927Z,64.98
2022-12-26T00:14:54.845Z,64.90
2022-12-26T00:17:21.826Z,64.74
2022-12-26T00:19:48.911Z,64.06
2022-12-26T00:22:16.077Z,64.80
2022-12-26T00:24:42.957Z,64.18
2022-12-26T00:27:09.880Z,63.81
2022-12-26T00:29:36.774Z,64.25
2022-12-26T00:32:05.218Z,63.54
2022-12-26T00:34:32.213Z,63.03
2022-12-26T00:36:59.151Z,63.48
2022-12-26T00:39:26.290Z,63.27
2022-12-26T00:41:53.244Z,63.95
2022-12-26T00:44:20.302Z,63.47
2022-12-26T00:46:47.195Z,62.39
2022-12-26T00:49:14.294Z,62.56
2022-12-26T00:51:41.228Z,62.93
2022-12-26T00:54:16.888Z,63.13
2022-12-26T00:56:43.871Z,62.79
2022-12-26T00:59:10.831Z,63.27
2022-12-26T01:01:37.983Z,63.71
2022-12-26T01:07:11.033Z,63.58
2022-12-26T01:09:38.729Z,64.13
2022-12-26T01:12:05.734Z,63.90
2022-12-26T01:14:32.644Z,63.66
2022-12-26T01:16:59.626Z,64.42
2022-12-26T01:19:26.879Z,64.28
2022-12-26T01:52:48.256Z,64.47
2022-12-26T02:56:36.634Z,65.00
2022-12-26T02:59:57.624Z,65.27
2022-12-26T03:07:13.342Z,65.14
2022-12-26T03:13:52.085Z,65.17
2022-12-26T03:16:50.792Z,65.40
2022-12-26T04:11:59.655Z,64.69
2022-12-26T04:15:17.190Z,64.73
2022-12-26T04:18:17.481Z,64.85
2022-12-26T07:00:01.822Z,66.14
2022-12-26T07:11:30.012Z,65.94
2022-12-26T07:13:57.596Z,65.05
2022-12-26T07:29:19.344Z,67.02
2022-12-26T07:31:46.344Z,67.84
2022-12-26T07:55:51.738Z,67.56
2022-12-26T07:58:18.776Z,65.32
2022-12-26T08:53:24.996Z,60.40
2022-12-26T08:55:52.756Z,59.15
2022-12-26T08:58:19.911Z,60.03
2022-12-26T09:09:23.242Z,58.67
2022-12-26T09:34:45.266Z,56.98
2022-12-26T09:37:12.355Z,57.64
2022-12-26T09:39:39.326Z,57.54
2022-12-26T09:42:15.876Z,58.28
2022-12-26T09:44:54.671Z,58.16
2022-12-26T09:47:56.350Z,57.00
2022-12-26T09:50:28.479Z,57.93
2022-12-26T09:52:59.544Z,57.51
2022-12-26T09:55:49.362Z,56.65
2022-12-26T09:58:40.146Z,57.75
2022-12-26T10:01:17.214Z,57.52
2022-12-26T10:03:53.907Z,57.04
2022-12-26T10:06:25.309Z,57.22
2022-12-26T10:09:07.442Z,56.26
2022-12-26T10:15:53.246Z,56.22
2022-12-26T10:18:29.169Z,56.23
2022-12-26T10:20:58.952Z,55.21
2022-12-26T10:23:32.484Z,54.08
2022-12-26T10:26:18.371Z,54.67
2022-12-26T10:28:55.125Z,54.34
2022-12-26T10:31:44.356Z,53.86
2022-12-26T10:34:21.765Z,50.86
2022-12-26T10:36:58.557Z,52.09
2022-12-26T10:39:28.081Z,51.91
2022-12-26T10:42:01.449Z,51.55
2022-12-26T10:44:28.638Z,51.97
2022-12-26T10:47:17.674Z,51.41
2022-12-26T10:49:47.351Z,51.58
2022-12-26T10:52:40.669Z,51.75
2022-12-26T10:55:28.178Z,50.46
2022-12-26T10:58:24.121Z,50.29
2022-12-26T11:00:51.092Z,50.10
2022-12-26T11:03:20.320Z,49.05
2022-12-26T11:06:10.636Z,50.35
2022-12-26T11:08:49.462Z,49.68
2022-12-26T11:11:46.309Z,48.85
2022-12-26T11:14:34.059Z,43.92
2022-12-26T11:17:08.131Z,44.70
2022-12-26T11:19:38.625Z,45.41
2022-12-26T11:22:26.721Z,43.68
2022-12-26T11:25:35.263Z,42.35
2022-12-26T11:28:27.095Z,45.55
2022-12-26T11:30:54.666Z,46.38
2022-12-26T11:33:24.181Z,46.57
2022-12-26T11:35:53.978Z,45.79
2022-12-26T11:38:44.493Z,46.64
2022-12-26T11:41:34.059Z,46.78
2022-12-26T11:44:26.584Z,46.42
2022-12-26T11:46:56.679Z,45.69
2022-12-26T11:49:34.780Z,44.48
2022-12-26T11:52:23.991Z,43.44
2022-12-26T11:54:51.576Z,44.32
2022-12-26T11:57:18.609Z,45.82
2022-12-26T11:59:47.013Z,44.54
2022-12-26T12:02:29.541Z,42.86
2022-12-26T12:05:06.645Z,45.64
2022-12-26T12:07:58.243Z,44.49
2022-12-26T12:10:34.074Z,45.14
2022-12-26T12:13:32.197Z,45.59
2022-12-26T12:16:15.192Z,45.39
2022-12-26T12:18:57.391Z,45.12
2022-12-26T12:21:43.144Z,45.54
2022-12-26T12:24:19.885Z,45.13
2022-12-26T12:27:04.893Z,44.34
2022-12-26T12:30:10.247Z,44.81
2022-12-26T12:32:55.195Z,44.52
2022-12-26T12:35:51.811Z,44.48
2022-12-26T12:38:40.348Z,44.92
2022-12-26T12:41:32.721Z,43.78
2022-12-26T12:44:19.765Z,45.03
2022-12-26T12:47:11.479Z,43.95
2022-12-26T12:50:12.909Z,44.94
2022-12-26T12:53:00.991Z,44.89
2022-12-26T12:55:43.056Z,44.45
2022-12-26T12:58:28.625Z,45.13
2022-12-26T13:01:11.198Z,44.13
2022-12-26T13:03:54.616Z,45.56
2022-12-26T13:06:43.968Z,46.76
2022-12-26T13:09:16.782Z,46.61
2022-12-26T13:11:57.429Z,45.81
2022-12-26T13:14:29.456Z,46.55
2022-12-26T13:17:04.963Z,45.02
2022-12-26T13:19:51.382Z,45.84
2022-12-26T13:22:55.364Z,46.01
2022-12-26T13:25:25.654Z,45.67
2022-12-26T13:28:09.779Z,45.80
2022-12-26T13:30:38.500Z,46.63
2022-12-26T13:33:08.824Z,46.54
2022-12-26T13:35:58.584Z,46.64
2022-12-26T13:38:52.270Z,47.53
2022-12-26T13:41:40.068Z,47.66
2022-12-26T13:44:26.061Z,48.82
2022-12-26T13:46:52.989Z,49.05
2022-12-26T13:49:27.917Z,49.76
2022-12-26T13:51:56.472Z,50.08
2022-12-26T13:54:25.648Z,50.94
2022-12-26T13:57:20.739Z,51.82
2022-12-26T14:00:09.916Z,52.01
2022-12-26T14:03:19.042Z,52.16
2022-12-26T14:06:10.067Z,52.73
2022-12-26T14:09:09.766Z,53.75
2022-12-26T14:12:01.759Z,53.32
2022-12-26T14:14:38.899Z,53.63
2022-12-26T14:17:16.140Z,53.92
2022-12-26T14:19:46.191Z,54.24
2022-12-26T14:22:30.813Z,54.62
2022-12-26T14:25:21.278Z,55.34
2022-12-26T14:28:12.147Z,55.72
2022-12-26T14:31:19.049Z,55.95
2022-12-26T14:33:50.299Z,56.61
2022-12-26T14:37:05.715Z,56.01
2022-12-26T14:39:47.475Z,56.91
2022-12-26T14:42:42.691Z,56.82
2022-12-26T14:45:30.020Z,56.50
2022-12-26T14:47:57.179Z,56.77
2022-12-26T14:50:33.331Z,56.85
2022-12-26T14:53:25.164Z,56.86
2022-12-26T14:55:52.381Z,57.66
2022-12-26T14:58:52.709Z,57.57
2022-12-26T15:01:22.667Z,58.12
2022-12-26T15:04:17.333Z,57.95
2022-12-26T15:07:15.443Z,58.40
2022-12-26T15:10:21.905Z,58.21
2022-12-26T15:12:58.980Z,58.26
2022-12-26T15:15:58.913Z,58.90
2022-12-26T15:19:01.516Z,58.48
2022-12-26T15:22:09.157Z,58.21
2022-12-26T15:25:18.645Z,58.45
2022-12-26T15:27:59.482Z,58.82
2022-12-26T15:30:40.166Z,59.02
2022-12-26T15:33:23.129Z,59.58
2022-12-26T15:35:54.714Z,59.51
2022-12-26T15:39:04.503Z,59.81
2022-12-26T15:41:48.155Z,60.27
2022-12-26T15:44:47.038Z,60.23
2022-12-26T15:47:55.819Z,59.85
2022-12-26T15:50:26.872Z,60.00
2022-12-26T15:53:10.107Z,60.38
2022-12-26T15:55:55.484Z,60.45
2022-12-26T15:58:52.956Z,60.71
2022-12-26T16:01:40.133Z,60.46
2022-12-26T16:04:17.789Z,60.75
2022-12-26T16:07:17.009Z,60.81
2022-12-26T16:09:55.340Z,60.27
2022-12-26T16:12:25.708Z,60.50
2022-12-26T16:15:09.462Z,60.30
2022-12-26T16:17:38.510Z,60.58
2022-12-26T16:20:47.987Z,60.47
2022-12-26T16:23:20.946Z,60.44
2022-12-26T16:25:59.675Z,61.62
2022-12-26T16:28:39.574Z,61.69
2022-12-26T16:31:08.021Z,62.51
2022-12-26T16:33:43.626Z,61.82
2022-12-26T16:36:20.699Z,61.88
2022-12-26T16:38:48.669Z,61.53
2022-12-26T16:41:39.864Z,61.27
2022-12-26T16:44:30.768Z,61.49
2022-12-26T16:47:13.007Z,61.53
2022-12-26T16:49:45.298Z,61.96
2022-12-26T16:52:39.293Z,61.90
2022-12-26T16:55:26.620Z,61.52
2022-12-26T16:57:57.401Z,62.09
2022-12-26T17:00:25.135Z,62.01
2022-12-26T17:02:57.222Z,62.10
2022-12-26T17:05:27.396Z,62.28
2022-12-26T17:07:59.031Z,62.44
2022-12-26T17:10:29.449Z,62.62
2022-12-26T17:13:10.379Z,62.77
2022-12-26T17:15:48.227Z,62.79
2022-12-26T17:18:46.347Z,63.08
2022-12-26T17:21:21.947Z,63.47
2022-12-26T17:24:07.762Z,63.51
2022-12-26T17:26:38.028Z,63.37
2022-12-26T17:29:05.719Z,63.46
2022-12-26T17:31:40.155Z,63.39
2022-12-26T17:34:14.516Z,63.18
2022-12-26T17:39:29.681Z,63.06
2022-12-26T17:42:01.717Z,63.17
2022-12-26T17:44:49.251Z,63.70
2022-12-26T17:47:27.236Z,63.04
2022-12-26T17:49:55.475Z,63.12
2022-12-26T17:52:34.943Z,63.26
2022-12-26T17:55:04.226Z,63.15
2022-12-26T17:57:31.199Z,63.63
2022-12-26T17:59:58.572Z,63.63
2022-12-26T18:02:25.701Z,63.58
2022-12-26T18:04:53.942Z,63.23
2022-12-26T18:07:30.853Z,63.58
2022-12-26T18:10:00.212Z,63.94
2022-12-26T18:12:27.396Z,63.95
2022-12-26T18:15:01.095Z,64.34
2022-12-26T18:17:31.469Z,64.13
2022-12-26T18:19:59.148Z,63.91
2022-12-26T18:22:26.241Z,63.90
2022-12-26T18:24:53.250Z,63.92
2022-12-26T18:27:29.303Z,64.05
2022-12-26T18:29:56.256Z,63.43
2022-12-26T18:32:30.073Z,63.17
2022-12-26T18:34:57.527Z,63.52
2022-12-26T18:37:27.258Z,63.52
2022-12-26T18:39:54.620Z,64.17
2022-12-26T18:42:21.645Z,64.28
2022-12-26T18:44:48.809Z,64.33
2022-12-26T18:47:18.636Z,64.33
2022-12-26T18:49:46.365Z,64.52
2022-12-26T18:52:17.810Z,64.74
2022-12-26T18:54:45.451Z,64.61
2022-12-26T18:57:19.141Z,64.22
2022-12-26T18:59:48.351Z,64.36
2022-12-26T19:02:18.429Z,64.62
2022-12-26T19:04:48.664Z,64.44
2022-12-26T19:07:17.771Z,64.43
2022-12-26T19:09:46.546Z,64.54
2022-12-26T19:12:13.691Z,65.04
2022-12-26T19:14:41.635Z,64.79
2022-12-26T19:17:08.512Z,64.83
2022-12-26T19:19:35.626Z,65.09
2022-12-26T19:22:02.739Z,64.89
2022-12-26T19:24:29.727Z,65.09
2022-12-26T19:26:56.774Z,64.94
2022-12-26T19:29:23.811Z,64.61
2022-12-26T19:31:50.866Z,64.54
2022-12-26T19:34:17.861Z,64.89
2022-12-26T19:36:44.834Z,64.85
2022-12-26T19:39:11.766Z,64.49
2022-12-26T19:41:38.685Z,64.70
2022-12-26T19:47:46.976Z,65.15
2022-12-26T19:50:14.193Z,64.16
2022-12-26T19:52:41.481Z,63.93
2022-12-26T19:55:11.566Z,63.80
2022-12-26T19:57:38.718Z,63.51
2022-12-26T20:00:10.784Z,63.69
2022-12-26T20:02:41.391Z,62.98
2022-12-26T20:05:09.768Z,63.11
2022-12-26T20:07:36.863Z,63.15
2022-12-26T20:10:04.767Z,63.33
2022-12-26T20:12:31.754Z,63.65
2022-12-26T20:14:58.748Z,63.63
2022-12-26T20:17:25.772Z,64.32
2022-12-26T20:19:56.987Z,64.15
2022-12-26T20:22:23.993Z,64.06
2022-12-26T20:24:50.947Z,63.63
2022-12-26T20:27:18.208Z,63.79
2022-12-26T20:29:45.338Z,63.34
2022-12-26T20:32:12.488Z,63.30
2022-12-26T20:34:39.627Z,63.79
2022-12-26T20:37:06.711Z,63.35
2022-12-26T20:39:33.756Z,63.55
2022-12-26T20:42:00.839Z,63.46
2022-12-26T20:44:27.898Z,63.64
2022-12-26T20:46:54.951Z,63.66
2022-12-26T20:49:21.983Z,63.72
2022-12-26T20:51:49.097Z,63.76
2022-12-26T20:54:17.668Z,63.25
2022-12-26T20:56:45.389Z,63.87
2022-12-26T20:59:12.443Z,63.51
2022-12-26T21:01:40.558Z,63.37
2022-12-26T21:04:10.678Z,63.57
2022-12-26T21:06:38.357Z,63.62
2022-12-26T21:09:06.848Z,63.86
2022-12-26T21:11:38.171Z,64.02
2022-12-26T21:14:08.159Z,63.61
2022-12-26T21:16:41.610Z,63.41
2022-12-26T21:19:15.069Z,63.79
2022-12-26T21:21:44.411Z,64.48
2022-12-26T21:24:18.218Z,64.11
2022-12-26T21:26:46.553Z,64.25
2022-12-26T21:29:23.265Z,63.54
2022-12-26T21:31:50.798Z,63.28
2022-12-26T21:34:19.684Z,63.85
2022-12-26T21:37:05.649Z,63.37
2022-12-26T21:39:34.282Z,63.16
2022-12-26T21:42:02.102Z,63.58
2022-12-26T21:44:30.471Z,63.71
2022-12-26T21:46:57.395Z,64.01
2022-12-26T21:49:24.586Z,64.33
2022-12-26T21:51:51.585Z,64.47
2022-12-26T21:54:37.382Z,64.62
2022-12-26T21:57:05.768Z,64.10
2022-12-26T21:59:51.241Z,63.67
2022-12-26T22:02:36.853Z,63.92
2022-12-26T22:05:04.235Z,64.05
2022-12-26T22:07:31.196Z,63.99
2022-12-26T22:09:58.145Z,64.07
2022-12-26T22:12:43.445Z,64.08
2022-12-26T22:15:31.110Z,64.31
2022-12-26T22:17:58.179Z,64.49
2022-12-26T22:20:25.457Z,64.36
2022-12-26T22:22:53.015Z,64.38
2022-12-26T22:25:20.168Z,64.39
2022-12-26T22:27:47.439Z,64.74
2022-12-26T22:30:14.506Z,64.00
2022-12-26T22:32:41.485Z,64.55
2022-12-26T22:35:13.295Z,63.86
2022-12-26T22:37:45.280Z,64.21
2022-12-26T22:40:12.470Z,63.78
2022-12-26T22:42:39.449Z,64.04
2022-12-26T22:45:06.993Z,63.81
2022-12-26T22:47:33.918Z,63.57
2022-12-26T22:50:00.844Z,63.74
2022-12-26T22:52:29.024Z,63.27
2022-12-26T22:54:55.967Z,63.29
2022-12-26T22:57:23.808Z,63.21
2022-12-26T23:00:08.263Z,63.26
2022-12-26T23:02:35.928Z,63.00
2022-12-26T23:05:04.095Z,63.09
2022-12-26T23:07:31.408Z,62.95
2022-12-26T23:09:58.992Z,63.74
2022-12-26T23:12:44.486Z,63.72
2022-12-26T23:15:18.433Z,63.86
2022-12-26T23:18:13.778Z,64.35
2022-12-26T23:20:59.495Z,63.44
2022-12-26T23:23:26.913Z,63.75
2022-12-26T23:25:53.987Z,63.24
2022-12-26T23:28:39.742Z,62.98
2022-12-26T23:31:06.814Z,63.30
2022-12-26T23:33:33.881Z,63.76
2022-12-26T23:36:00.900Z,64.14
2022-12-26T23:38:27.891Z,63.59
2022-12-26T23:40:54.891Z,63.71
2022-12-26T23:43:21.796Z,63.45
2022-12-26T23:45:48.820Z,63.58
2022-12-26T23:48:15.912Z,64.53
2022-12-26T23:50:42.935Z,64.43
2022-12-26T23:53:10.066Z,64.58
2022-12-26T23:55:41.894Z,64.08
2022-12-26T23:58:09.035Z,64.76
